Time;durP1;ratioP1;P1;durP2;ratioP2;P2;SDS_P1;SDS_P2;PMS_P1;PMS_P2;Temp;Humidity;BMP_temperature;BMP_pressure;BME280_temperature;BME280_humidity;BME280_pressure;Samples;Min_cycle;Max_cycle;Signal;HPM_P1;HPM_P2
2023/09/27 03:31:06;;;;;;;3.55;3.17;;;10.70;99.90;;;;;;5850183;22;20246;-69
2023/09/27 03:33:33;;;;;;;3.63;3.20;;;10.60;99.90;;;;;;4990091;28;20208;-68
2023/09/27 03:36:04;;;;;;;3.47;3.10;;;10.60;99.90;;;;;;4989249;28;20217;-69
2023/09/27 03:38:32;;;;;;;4.10;3.40;;;10.60;99.90;;;;;;5003111;28;20568;-68
2023/09/27 03:40:58;;;;;;;4.00;3.15;;;10.60;99.90;;;;;;5010460;28;20224;-69
2023/09/27 03:43:29;;;;;;;4.07;3.33;;;10.50;99.90;;;;;;5007201;28;20209;-69
2023/09/27 03:45:56;;;;;;;4.10;3.70;;;10.50;99.90;;;;;;4990469;28;20211;-69
2023/09/27 03:48:26;;;;;;;2.75;2.55;;;10.50;99.90;;;;;;4991201;28;20696;-69
2023/09/27 03:50:53;;;;;;;3.20;2.90;;;10.50;99.90;;;;;;4991186;28;20273;-68
2023/09/27 03:53:20;;;;;;;4.95;3.22;;;10.50;99.90;;;;;;4972906;28;20205;-68
2023/09/27 03:55:48;;;;;;;3.30;3.00;;;10.50;99.90;;;;;;4971549;28;20221;-68
2023/09/27 03:58:15;;;;;;;3.83;3.05;;;10.50;99.90;;;;;;4972058;28;20205;-69
2023/09/27 04:00:41;;;;;;;3.10;2.80;;;10.40;99.90;;;;;;4972036;28;20755;-68
2023/09/27 04:03:08;;;;;;;3.45;3.15;;;10.40;99.90;;;;;;4971949;28;20220;-69
2023/09/27 04:05:36;;;;;;;3.00;2.70;;;10.40;99.90;;;;;;4979679;28;20211;-68
2023/09/27 04:08:03;;;;;;;3.70;2.63;;;10.40;99.90;;;;;;4972109;28;20220;-68
2023/09/27 04:10:31;;;;;;;4.18;3.75;;;10.40;99.90;;;;;;4972606;28;20317;-68
2023/09/27 04:12:58;;;;;;;3.55;3.17;;;10.40;99.90;;;;;;4972598;28;20206;-69
2023/09/27 04:15:24;;;;;;;3.97;3.20;;;10.40;99.90;;;;;;4973221;28;20463;-67
2023/09/27 04:17:51;;;;;;;3.38;3.08;;;10.40;99.90;;;;;;4975889;28;20215;-69
2023/09/27 04:20:18;;;;;;;3.90;3.58;;;10.40;99.90;;;;;;4983758;28;20220;-68
2023/09/27 04:22:48;;;;;;;4.05;3.65;;;10.40;99.90;;;;;;4975893;28;20216;-68
2023/09/27 04:25:15;;;;;;;4.05;3.33;;;10.40;99.90;;;;;;4984800;28;20222;-68
2023/09/27 04:27:44;;;;;;;4.35;3.20;;;10.40;99.90;;;;;;4982178;28;20204;-68
2023/09/27 04:30:13;;;;;;;3.10;2.90;;;10.40;99.90;;;;;;4976587;28;20264;-67
2023/09/27 04:32:41;;;;;;;3.00;2.75;;;10.40;99.90;;;;;;4975922;28;20207;-67
2023/09/27 04:35:09;;;;;;;3.55;3.25;;;10.40;99.90;;;;;;4976280;28;20345;-69
2023/09/27 04:37:36;;;;;;;4.00;3.15;;;10.40;99.90;;;;;;4975959;28;20308;-69
2023/09/27 04:40:08;;;;;;;4.18;3.42;;;10.40;99.90;;;;;;4976162;28;20289;-66
2023/09/27 04:42:35;;;;;;;4.13;3.42;;;10.40;99.90;;;;;;4976132;28;20278;-68
2023/09/27 04:45:03;;;;;;;3.00;2.80;;;10.40;99.90;;;;;;4979550;28;20211;-68
2023/09/27 04:47:30;;;;;;;3.90;3.50;;;10.40;99.90;;;;;;4976301;28;20525;-68
2023/09/27 04:49:56;;;;;;;3.40;3.10;;;10.40;99.90;;;;;;4976040;28;20227;-68
2023/09/27 04:52:23;;;;;;;3.75;3.30;;;10.30;99.90;;;;;;4976763;28;20331;-68
2023/09/27 04:54:54;;;;;;;5.93;3.83;;;10.30;99.90;;;;;;4975628;28;20268;-68
2023/09/27 04:57:22;;;;;;;4.10;3.53;;;10.30;99.90;;;;;;4977121;28;20204;-68
2023/09/27 04:59:49;;;;;;;3.35;3.05;;;10.30;99.90;;;;;;4976100;28;20219;-68
2023/09/27 05:02:16;;;;;;;3.28;2.97;;;10.30;99.90;;;;;;4976864;28;20236;-68
2023/09/27 05:04:43;;;;;;;5.18;3.65;;;10.30;99.90;;;;;;4975648;28;20264;-67
2023/09/27 05:07:10;;;;;;;5.35;3.63;;;10.30;99.90;;;;;;4977424;28;20217;-69
2023/09/27 05:09:36;;;;;;;4.03;3.03;;;10.30;99.90;;;;;;4985374;28;20276;-69
2023/09/27 05:12:04;;;;;;;4.40;3.38;;;10.30;99.90;;;;;;4984305;28;20228;-69
2023/09/27 05:14:32;;;;;;;3.13;2.85;;;10.30;99.90;;;;;;4976467;28;20216;-69
2023/09/27 05:16:59;;;;;;;3.53;3.03;;;10.30;99.90;;;;;;4976361;28;20206;-69
2023/09/27 05:19:26;;;;;;;3.95;3.08;;;10.30;99.90;;;;;;4977388;28;20207;-68
2023/09/27 05:21:53;;;;;;;4.18;3.47;;;10.30;99.90;;;;;;4975602;28;20233;-69
2023/09/27 05:24:20;;;;;;;6.10;3.25;;;10.30;99.90;;;;;;4976252;28;20237;-69
2023/09/27 05:26:47;;;;;;;3.55;3.10;;;10.30;99.90;;;;;;4975487;28;20237;-69
2023/09/27 05:29:13;;;;;;;3.35;3.05;;;10.30;99.90;;;;;;4977486;28;20291;-69
2023/09/27 05:31:42;;;;;;;3.38;2.97;;;10.30;99.90;;;;;;4976290;28;20316;-69
2023/09/27 05:34:08;;;;;;;3.50;3.20;;;10.30;99.90;;;;;;4976920;28;20212;-69
2023/09/27 05:36:35;;;;;;;3.58;3.28;;;10.30;99.90;;;;;;4976748;28;20688;-69
2023/09/27 05:39:05;;;;;;;4.57;3.55;;;10.30;99.90;;;;;;4976585;28;20213;-69
2023/09/27 05:41:31;;;;;;;5.85;3.58;;;10.30;99.90;;;;;;4976596;28;20220;-69
2023/09/27 05:43:58;;;;;;;4.50;3.70;;;10.30;99.90;;;;;;4976083;28;20216;-69
2023/09/27 05:46:25;;;;;;;4.03;3.42;;;10.30;99.90;;;;;;4977958;28;20210;-69
2023/09/27 05:48:53;;;;;;;3.78;3.25;;;10.40;99.90;;;;;;4977491;28;20212;-68
2023/09/27 05:51:20;;;;;;;5.57;3.42;;;10.40;99.90;;;;;;4982817;28;20235;-69
2023/09/27 05:53:51;;;;;;;4.28;3.08;;;10.40;99.90;;;;;;4979221;28;20215;-68
2023/09/27 05:56:18;;;;;;;4.00;3.42;;;10.40;99.90;;;;;;4982398;28;20212;-69
2023/09/27 05:58:45;;;;;;;3.53;3.17;;;10.40;99.90;;;;;;4979468;28;20740;-69
2023/09/27 06:01:13;;;;;;;3.55;3.25;;;10.50;99.90;;;;;;4983760;28;20322;-69
2023/09/27 06:03:40;;;;;;;4.07;3.65;;;10.50;99.90;;;;;;4975581;28;20209;-69
2023/09/27 06:06:08;;;;;;;4.53;3.50;;;10.50;99.90;;;;;;4976909;28;20243;-69
2023/09/27 06:08:35;;;;;;;3.78;3.38;;;10.50;99.90;;;;;;4977095;28;20290;-69
2023/09/27 06:11:03;;;;;;;3.38;3.08;;;10.60;99.90;;;;;;4976026;28;20292;-69
2023/09/27 06:13:30;;;;;;;4.65;3.63;;;10.60;99.90;;;;;;4976229;28;20295;-69
2023/09/27 06:15:58;;;;;;;4.03;3.30;;;10.70;99.90;;;;;;4976040;28;20240;-69
2023/09/27 06:18:27;;;;;;;3.50;2.85;;;10.70;99.90;;;;;;4977940;28;20208;-69
2023/09/27 06:20:54;;;;;;;4.40;3.13;;;10.80;99.90;;;;;;4976283;28;20233;-69
2023/09/27 06:23:23;;;;;;;4.00;3.50;;;10.80;99.90;;;;;;4978282;28;20217;-69
2023/09/27 06:25:51;;;;;;;4.75;3.70;;;10.90;99.90;;;;;;4975816;28;20216;-69
2023/09/27 06:28:19;;;;;;;5.28;3.63;;;10.90;99.90;;;;;;4978594;28;20209;-69
2023/09/27 06:30:46;;;;;;;10.15;3.55;;;11.00;99.90;;;;;;4989572;28;20659;-69
2023/09/27 06:33:13;;;;;;;4.25;3.90;;;11.10;99.90;;;;;;4979775;28;20263;-69
2023/09/27 06:35:42;;;;;;;4.47;3.78;;;11.10;99.90;;;;;;4976428;28;20209;-69
2023/09/27 06:38:09;;;;;;;4.25;3.85;;;11.20;99.90;;;;;;4977231;28;20210;-68
2023/09/27 06:40:37;;;;;;;3.90;3.50;;;11.30;99.90;;;;;;4977192;28;20723;-69
2023/09/27 06:43:04;;;;;;;4.43;4.03;;;11.40;99.90;;;;;;4976720;28;20214;-69
2023/09/27 06:45:32;;;;;;;5.40;4.60;;;11.50;99.90;;;;;;4977864;28;20214;-69
2023/09/27 06:47:59;;;;;;;5.22;4.72;;;11.60;99.90;;;;;;4976382;28;20220;-69
2023/09/27 06:50:26;;;;;;;3.97;3.60;;;11.70;99.90;;;;;;4978558;28;20230;-69
2023/09/27 06:52:54;;;;;;;5.60;5.00;;;11.80;99.90;;;;;;4976567;28;20643;-69
2023/09/27 06:55:22;;;;;;;5.50;4.90;;;11.90;99.90;;;;;;4978414;28;20644;-69
2023/09/27 06:57:52;;;;;;;6.97;4.88;;;12.00;99.90;;;;;;4976844;28;20244;-69
2023/09/27 07:00:23;;;;;;;8.40;4.50;;;12.10;99.90;;;;;;4978882;28;20339;-69
2023/09/27 07:02:51;;;;;;;5.70;5.20;;;12.20;99.90;;;;;;4981519;28;20233;-69
2023/09/27 07:05:21;;;;;;;7.25;6.20;;;12.40;99.90;;;;;;4978611;28;20216;-69
2023/09/27 07:07:48;;;;;;;6.40;5.30;;;12.50;99.90;;;;;;4987339;28;20215;-69
2023/09/27 07:10:15;;;;;;;6.10;5.43;;;12.70;99.90;;;;;;4984855;28;20293;-69
2023/09/27 07:12:42;;;;;;;6.33;5.73;;;12.80;99.90;;;;;;4985635;28;20225;-69
2023/09/27 07:15:12;;;;;;;6.50;5.53;;;13.00;99.90;;;;;;4980177;28;20530;-69
2023/09/27 07:17:39;;;;;;;7.10;5.87;;;13.20;99.90;;;;;;4977332;28;20463;-69
2023/09/27 07:20:17;;;;;;;7.23;5.27;;;13.40;99.90;;;;;;4977459;28;21014;-69
2023/09/27 07:22:44;;;;;;;6.00;5.37;;;13.60;99.90;;;;;;4977297;28;20470;-69
2023/09/27 07:25:16;;;;;;;8.77;5.00;;;13.80;99.90;;;;;;4977570;28;20459;-69
2023/09/27 07:27:43;;;;;;;7.30;5.63;;;14.10;99.90;;;;;;4977628;28;21496;-69
2023/09/27 07:30:14;;;;;;;5.83;5.23;;;14.30;99.90;;;;;;4978303;28;20463;-69
2023/09/27 07:32:41;;;;;;;7.00;5.07;;;14.60;99.90;;;;;;4977588;28;20586;-69
2023/09/27 07:35:10;;;;;;;8.60;5.30;;;14.80;99.90;;;;;;4977561;28;20948;-69
2023/09/27 07:37:37;;;;;;;7.27;5.47;;;15.10;99.90;;;;;;4978939;28;20473;-69
2023/09/27 07:40:11;;;;;;;6.50;5.57;;;15.40;99.90;;;;;;4977356;28;20884;-69
2023/09/27 07:42:39;;;;;;;6.20;4.40;;;15.60;99.90;;;;;;4978747;28;20466;-70
2023/09/27 07:45:13;;;;;;;9.63;5.63;;;15.80;99.90;;;;;;4977686;28;20469;-69
2023/09/27 07:47:42;;;;;;;6.47;5.87;;;16.00;99.90;;;;;;4978350;28;20962;-69
2023/09/27 07:50:10;;;;;;;4.80;4.30;;;16.20;99.90;;;;;;4979494;28;20463;-69
2023/09/27 07:52:37;;;;;;;4.10;3.57;;;16.50;99.90;;;;;;4983124;28;20491;-69
2023/09/27 07:55:04;;;;;;;3.53;3.20;;;16.60;99.90;;;;;;4981114;28;20834;-69
2023/09/27 07:57:31;;;;;;;4.53;3.17;;;16.70;99.90;;;;;;4984265;28;20893;-69
2023/09/27 07:59:58;;;;;;;3.20;2.83;;;16.90;99.90;;;;;;4981414;28;20461;-67
2023/09/27 08:02:26;;;;;;;3.77;3.47;;;17.00;99.90;;;;;;4984894;28;20853;-67
2023/09/27 08:04:55;;;;;;;3.20;2.93;;;17.00;99.90;;;;;;4992474;28;20499;-67
2023/09/27 08:07:22;;;;;;;3.83;3.27;;;17.00;99.90;;;;;;4992550;28;20975;-67
2023/09/27 08:09:49;;;;;;;3.57;3.27;;;17.00;99.90;;;;;;4988946;28;20467;-66
2023/09/27 08:12:16;;;;;;;3.00;2.80;;;17.00;99.90;;;;;;4991666;28;20492;-67
2023/09/27 08:14:43;;;;;;;5.20;3.53;;;17.20;99.90;;;;;;4982538;28;20470;-66
2023/09/27 08:17:10;;;;;;;3.30;3.00;;;17.30;99.90;;;;;;4983005;28;20491;-66
2023/09/27 08:19:38;;;;;;;4.17;3.37;;;17.50;99.90;;;;;;4981857;28;20472;-66
2023/09/27 08:22:07;;;;;;;4.13;3.60;;;17.60;99.90;;;;;;4992268;28;20482;-66
2023/09/27 08:24:34;;;;;;;3.60;3.30;;;17.80;99.90;;;;;;4983979;28;20504;-66
2023/09/27 08:27:01;;;;;;;4.60;4.10;;;18.00;99.90;;;;;;4981776;28;20524;-66
2023/09/27 08:29:28;;;;;;;2.90;2.60;;;18.20;99.90;;;;;;4981885;28;20458;-66
2023/09/27 08:31:55;;;;;;;3.97;3.30;;;18.40;99.90;;;;;;4981393;28;20572;-66
2023/09/27 08:34:23;;;;;;;2.70;2.47;;;18.60;99.90;;;;;;4983711;28;20501;-66
2023/09/27 08:36:50;;;;;;;3.20;2.93;;;18.70;99.90;;;;;;4982554;28;20767;-66
2023/09/27 08:39:18;;;;;;;3.03;2.83;;;18.80;99.90;;;;;;4983909;28;20470;-66
2023/09/27 08:41:45;;;;;;;3.60;2.30;;;18.90;99.90;;;;;;4982712;28;20541;-68
2023/09/27 08:44:13;;;;;;;3.83;2.87;;;19.00;99.90;;;;;;4982477;28;20812;-68
2023/09/27 08:46:41;;;;;;;4.20;3.10;;;19.10;99.90;;;;;;4983843;28;20533;-68
2023/09/27 08:49:12;;;;;;;4.07;3.00;;;19.30;99.90;;;;;;4982314;28;20992;-68
2023/09/27 08:51:42;;;;;;;2.60;2.40;;;19.40;99.90;;;;;;4984376;28;20891;-68
2023/09/27 08:54:11;;;;;;;7.73;2.20;;;19.60;99.90;;;;;;4982963;28;20460;-68
2023/09/27 08:56:40;;;;;;;3.37;3.00;;;19.90;99.90;;;;;;4984075;28;20919;-68
2023/09/27 08:59:07;;;;;;;4.17;3.77;;;20.10;99.90;;;;;;4982645;28;20526;-68
2023/09/27 09:01:34;;;;;;;4.37;3.10;;;20.30;99.90;;;;;;4984641;28;20891;-68
2023/09/27 09:04:02;;;;;;;3.83;3.43;;;20.50;99.90;;;;;;4981252;28;20552;-68
2023/09/27 09:06:29;;;;;;;5.77;3.90;;;20.70;99.90;;;;;;4981824;28;20893;-68
2023/09/27 09:08:56;;;;;;;4.47;4.07;;;20.80;99.90;;;;;;4978037;28;20491;-66
2023/09/27 09:11:24;;;;;;;3.40;3.10;;;20.90;99.90;;;;;;4984431;28;20488;-66
2023/09/27 09:14:04;;;;;;;4.33;3.73;;;21.00;99.90;;;;;;4978725;28;20464;-67
2023/09/27 09:16:39;;;;;;;5.90;3.57;;;21.10;99.90;;;;;;4982008;28;20949;-66
2023/09/27 09:19:19;;;;;;;3.90;3.47;;;21.20;99.90;;;;;;4978905;28;20464;-67
2023/09/27 09:21:55;;;;;;;3.23;2.93;;;21.30;99.90;;;;;;4983440;28;20477;-67
2023/09/27 09:24:23;;;;;;;3.73;3.30;;;21.50;99.90;;;;;;4981275;28;20469;-67
2023/09/27 09:27:06;;;;;;;3.50;3.20;;;21.70;99.90;;;;;;4982884;28;20468;-67
2023/09/27 09:29:47;;;;;;;4.73;3.80;;;21.90;99.90;;;;;;4981834;28;20496;-67
2023/09/27 09:32:15;;;;;;;5.07;3.70;;;22.10;99.90;;;;;;4995379;28;20486;-67
2023/09/27 09:34:43;;;;;;;4.00;3.03;;;22.10;99.90;;;;;;4987251;28;20501;-66
2023/09/27 09:37:27;;;;;;;3.80;3.47;;;22.20;99.90;;;;;;4983184;28;20470;-66
2023/09/27 09:40:10;;;;;;;4.30;3.83;;;22.30;99.90;;;;;;4994374;28;20469;-67
2023/09/27 09:42:36;;;;;;;3.93;3.20;;;22.50;99.90;;;;;;4981590;28;20556;-66
2023/09/27 09:45:07;;;;;;;3.93;3.40;;;22.60;99.90;;;;;;4981905;28;20478;-66
2023/09/27 09:47:35;;;;;;;3.73;3.33;;;22.70;99.90;;;;;;4986189;28;20820;-66
2023/09/27 09:50:03;;;;;;;4.13;3.67;;;22.80;99.90;;;;;;4994958;28;20481;-67
2023/09/27 09:52:32;;;;;;;3.20;2.90;;;22.90;99.90;;;;;;4996755;28;20489;-67
2023/09/27 09:54:59;;;;;;;2.90;2.63;;;23.10;99.90;;;;;;4991462;28;20529;-66
2023/09/27 09:57:33;;;;;;;3.17;2.87;;;23.20;99.90;;;;;;4997902;28;20472;-66
2023/09/27 10:00:16;;;;;;;2.67;2.47;;;23.40;99.90;;;;;;4986421;28;20467;-67
2023/09/27 10:02:49;;;;;;;3.90;3.20;;;23.50;99.90;;;;;;4982197;28;20509;-67
2023/09/27 10:05:19;;;;;;;2.83;2.63;;;23.60;99.90;;;;;;4991438;28;20458;-66
2023/09/27 10:07:47;;;;;;;3.10;2.80;;;23.70;99.90;;;;;;4984526;28;20537;-66
2023/09/27 10:10:14;;;;;;;3.30;2.73;;;23.90;99.90;;;;;;4983947;28;20463;-66
2023/09/27 10:12:42;;;;;;;3.23;2.90;;;24.00;99.90;;;;;;4984746;28;20532;-67
2023/09/27 10:15:11;;;;;;;4.63;2.70;;;24.10;99.90;;;;;;4982874;28;20474;-66
2023/09/27 10:17:38;;;;;;;3.33;3.03;;;24.20;99.90;;;;;;4985982;28;20469;-66
2023/09/27 10:20:13;;;;;;;3.03;2.33;;;24.30;99.90;;;;;;4982762;28;20491;-66
2023/09/27 10:22:41;;;;;;;3.00;2.70;;;24.40;99.90;;;;;;4986073;28;20969;-67
2023/09/27 10:25:32;;;;;;;3.40;2.83;;;24.50;99.90;;;;;;4982900;28;20876;-66
2023/09/27 10:28:06;;;;;;;3.50;2.73;;;24.50;99.90;;;;;;4983268;28;20856;-66
2023/09/27 10:31:09;;;;;;;3.20;2.77;;;24.60;99.90;;;;;;4981863;28;20556;-66
2023/09/27 10:33:39;;;;;;;3.70;2.33;;;24.70;99.90;;;;;;4977072;28;21002;-66
2023/09/27 10:36:29;;;;;;;3.00;2.20;;;24.90;99.90;;;;;;4996302;28;20551;-66
2023/09/27 10:39:06;;;;;;;3.33;2.90;;;25.00;99.90;;;;;;4995137;28;20461;-66
2023/09/27 10:41:46;;;;;;;2.80;2.60;;;25.10;99.90;;;;;;4981610;28;20561;-66
2023/09/27 10:44:13;;;;;;;2.90;2.50;;;25.20;99.90;;;;;;4997150;28;20498;-67
2023/09/27 10:46:43;;;;;;;3.20;2.73;;;25.30;99.90;;;;;;5000150;28;20454;-69
2023/09/27 10:49:12;;;;;;;2.63;2.43;;;25.30;99.90;;;;;;4986080;28;20459;-67
2023/09/27 10:51:39;;;;;;;2.43;2.23;;;25.40;99.90;;;;;;4986184;28;20514;-67
2023/09/27 10:54:08;;;;;;;4.33;2.10;;;25.50;99.90;;;;;;4982732;28;20467;-67
2023/09/27 10:56:35;;;;;;;2.43;2.20;;;25.50;99.90;;;;;;4986576;28;20846;-67
2023/09/27 10:59:02;;;;;;;2.30;2.10;;;25.60;99.90;;;;;;4983424;28;20473;-67
2023/09/27 11:01:29;;;;;;;2.07;1.87;;;25.70;99.90;;;;;;4993252;28;20521;-67
2023/09/27 11:03:59;;;;;;;2.40;2.20;;;25.80;99.90;;;;;;4993614;28;20450;-67
2023/09/27 11:06:28;;;;;;;2.17;1.97;;;25.90;99.90;;;;;;4986034;28;20507;-67
2023/09/27 11:09:05;;;;;;;2.27;2.00;;;26.10;99.90;;;;;;4984803;28;20458;-67
2023/09/27 11:11:32;;;;;;;2.43;2.20;;;26.20;99.90;;;;;;4981716;28;20493;-67
2023/09/27 11:13:58;;;;;;;2.60;2.10;;;26.30;99.90;;;;;;4983664;28;20495;-67
2023/09/27 11:16:25;;;;;;;2.50;2.30;;;26.30;99.90;;;;;;4986282;28;20470;-67
2023/09/27 11:18:52;;;;;;;2.47;2.27;;;26.40;99.90;;;;;;4985244;28;20462;-66
2023/09/27 11:21:19;;;;;;;3.97;2.67;;;26.50;99.90;;;;;;4985221;28;21067;-66
2023/09/27 11:23:54;;;;;;;2.43;2.23;;;26.60;99.90;;;;;;4985760;28;20889;-66
2023/09/27 11:26:21;;;;;;;2.67;1.70;;;26.70;99.90;;;;;;4985514;28;20471;-66
2023/09/27 11:28:57;;;;;;;2.43;1.97;;;26.80;99.90;;;;;;4991360;28;20461;-67
2023/09/27 11:31:25;;;;;;;3.20;2.30;;;26.80;99.90;;;;;;5000469;28;20551;-66
2023/09/27 11:33:52;;;;;;;3.93;2.23;;;26.80;99.90;;;;;;4988917;28;20500;-66
2023/09/27 11:36:18;;;;;;;1.90;1.70;;;26.90;99.90;;;;;;4985033;28;20841;-66
2023/09/27 11:38:50;;;;;;;2.90;2.10;;;26.90;99.90;;;;;;4992969;28;20465;-66
2023/09/27 11:41:18;;;;;;;2.57;2.37;;;26.90;99.90;;;;;;4986736;28;20863;-66
2023/09/27 11:43:45;;;;;;;2.23;1.97;;;27.00;99.90;;;;;;4986595;28;20462;-66
2023/09/27 11:46:12;;;;;;;2.50;2.10;;;27.10;99.90;;;;;;4986591;28;20467;-67
2023/09/27 11:48:40;;;;;;;2.40;2.20;;;27.10;99.90;;;;;;4987062;28;20469;-66
2023/09/27 11:51:06;;;;;;;2.10;1.70;;;27.20;99.90;;;;;;4984114;28;20481;-66
2023/09/27 11:53:33;;;;;;;2.03;1.60;;;27.20;99.90;;;;;;4987064;28;20509;-67
2023/09/27 11:56:01;;;;;;;2.60;2.20;;;27.30;99.90;;;;;;4984697;28;20466;-67
2023/09/27 11:58:29;;;;;;;2.10;1.90;;;27.30;99.90;;;;;;4986897;28;20524;-66
2023/09/27 12:00:55;;;;;;;3.80;1.77;;;27.30;99.90;;;;;;4985466;28;21010;-66
2023/09/27 12:03:22;;;;;;;2.27;2.00;;;27.40;99.90;;;;;;4986275;28;20459;-66
2023/09/27 12:05:49;;;;;;;2.10;1.60;;;27.40;99.90;;;;;;4986893;28;20466;-67
2023/09/27 12:08:15;;;;;;;1.57;1.47;;;27.40;99.90;;;;;;5001131;28;20466;-67
2023/09/27 12:10:42;;;;;;;2.73;2.10;;;27.40;99.90;;;;;;4986273;28;20869;-67
2023/09/27 12:13:08;;;;;;;2.10;1.77;;;27.40;99.90;;;;;;4984766;28;20521;-67
2023/09/27 12:15:37;;;;;;;1.77;1.60;;;27.20;99.90;;;;;;4987109;28;20493;-67
2023/09/27 12:18:04;;;;;;;2.97;1.40;;;27.20;99.90;;;;;;4985025;28;20963;-67
2023/09/27 12:20:31;;;;;;;1.90;1.67;;;27.20;99.90;;;;;;4987344;28;21584;-67
2023/09/27 12:22:58;;;;;;;2.40;2.20;;;27.30;99.90;;;;;;4986268;28;20454;-67
2023/09/27 12:25:25;;;;;;;5.70;1.93;;;27.40;99.90;;;;;;4986712;28;20467;-67
2023/09/27 12:27:52;;;;;;;1.70;1.60;;;27.50;99.90;;;;;;4987137;28;20466;-67
2023/09/27 12:30:19;;;;;;;2.07;1.87;;;27.50;99.90;;;;;;4986232;28;20470;-67
2023/09/27 12:32:47;;;;;;;2.93;2.20;;;27.60;99.90;;;;;;4987333;28;20497;-67
2023/09/27 12:35:14;;;;;;;2.40;1.70;;;27.60;99.90;;;;;;4985424;28;20467;-67
2023/09/27 12:37:40;;;;;;;2.20;1.80;;;27.60;99.90;;;;;;4991216;28;20468;-67
2023/09/27 12:40:08;;;;;;;1.57;1.47;;;27.60;99.90;;;;;;4988697;28;20967;-67
2023/09/27 12:42:35;;;;;;;3.10;1.87;;;27.70;99.90;;;;;;4991294;28;20482;-67
2023/09/27 12:45:03;;;;;;;2.20;2.00;;;27.70;99.90;;;;;;4989180;28;20845;-67
2023/09/27 12:47:30;;;;;;;2.53;2.20;;;27.60;99.90;;;;;;4984628;28;20834;-67
2023/09/27 12:50:02;;;;;;;2.13;1.60;;;27.70;99.90;;;;;;4990624;28;20462;-67
2023/09/27 12:52:29;;;;;;;2.27;2.07;;;27.70;99.90;;;;;;4984712;28;20486;-67
2023/09/27 12:54:55;;;;;;;2.27;2.07;;;27.70;99.90;;;;;;4990288;28;20465;-67
2023/09/27 12:57:22;;;;;;;1.80;1.60;;;27.60;99.90;;;;;;4990266;28;20467;-67
2023/09/27 12:59:49;;;;;;;1.80;1.60;;;27.60;99.90;;;;;;4991506;28;20477;-67
2023/09/27 13:02:15;;;;;;;2.40;1.87;;;27.60;99.90;;;;;;4989437;28;20487;-67
2023/09/27 13:04:43;;;;;;;2.23;1.67;;;27.60;99.90;;;;;;4991045;28;20458;-67
2023/09/27 13:07:11;;;;;;;1.90;1.80;;;27.70;99.90;;;;;;4989934;28;20463;-67
2023/09/27 13:09:39;;;;;;;2.10;1.90;;;27.60;99.90;;;;;;4991411;28;20474;-67
2023/09/27 13:12:06;;;;;;;2.20;1.83;;;27.60;99.90;;;;;;4989741;28;20486;-67
2023/09/27 13:14:34;;;;;;;2.40;2.20;;;27.70;99.90;;;;;;4991179;28;20910;-67
2023/09/27 13:17:01;;;;;;;2.90;2.43;;;27.80;99.90;;;;;;4990416;28;20467;-67
2023/09/27 13:19:28;;;;;;;2.37;1.93;;;27.80;99.90;;;;;;4991566;28;20474;-67
2023/09/27 13:21:55;;;;;;;2.00;1.80;;;27.80;99.90;;;;;;4991453;28;20486;-67
2023/09/27 13:24:23;;;;;;;2.30;2.10;;;27.80;99.90;;;;;;5007438;28;21043;-66
2023/09/27 13:26:49;;;;;;;2.17;1.87;;;27.60;99.90;;;;;;4996990;28;20459;-66
2023/09/27 13:29:16;;;;;;;2.30;2.10;;;27.50;99.90;;;;;;4990382;28;20838;-66
2023/09/27 13:31:43;;;;;;;2.10;1.90;;;27.30;99.90;;;;;;4991117;28;20490;-67
2023/09/27 13:34:10;;;;;;;1.90;1.80;;;27.20;99.90;;;;;;4989811;28;20497;-67
2023/09/27 13:36:37;;;;;;;2.43;2.00;;;27.10;99.90;;;;;;4991826;28;20838;-67
2023/09/27 13:39:05;;;;;;;2.30;2.00;;;26.90;99.90;;;;;;4990389;28;20498;-67
2023/09/27 13:41:41;;;;;;;2.90;1.63;;;26.60;99.90;;;;;;4991709;28;20478;-67
2023/09/27 13:44:08;;;;;;;1.80;1.70;;;26.40;99.90;;;;;;4989872;28;20453;-66
2023/09/27 13:46:34;;;;;;;2.00;1.70;;;26.30;99.90;;;;;;4991768;28;20823;-67
2023/09/27 13:49:01;;;;;;;2.60;2.10;;;26.20;99.90;;;;;;4990360;28;20466;-67
2023/09/27 13:51:29;;;;;;;2.17;1.93;;;26.20;99.90;;;;;;4991335;28;20860;-67
2023/09/27 13:53:56;;;;;;;2.20;1.80;;;26.10;99.90;;;;;;4990970;28;20871;-67
2023/09/27 13:56:22;;;;;;;2.20;2.00;;;26.10;99.90;;;;;;4990862;28;20538;-67
2023/09/27 13:58:51;;;;;;;2.77;2.13;;;26.00;99.90;;;;;;4991878;28;20469;-67
2023/09/27 14:01:17;;;;;;;2.00;1.80;;;25.80;99.90;;;;;;4990669;28;20565;-67
2023/09/27 14:03:44;;;;;;;1.80;1.70;;;25.60;99.90;;;;;;4991666;28;20466;-67
2023/09/27 14:06:11;;;;;;;3.93;1.73;;;25.50;99.90;;;;;;4990995;28;20635;-66
2023/09/27 14:08:38;;;;;;;3.43;1.90;;;25.40;99.90;;;;;;4991691;28;20538;-67
2023/09/27 14:11:04;;;;;;;2.30;2.10;;;25.40;99.90;;;;;;4991055;28;20849;-66
2023/09/27 14:13:33;;;;;;;1.70;1.50;;;25.20;99.90;;;;;;4991666;28;20489;-66
2023/09/27 14:16:02;;;;;;;2.20;2.00;;;25.20;99.90;;;;;;4991040;28;20512;-66
2023/09/27 14:18:28;;;;;;;2.30;2.10;;;25.20;99.90;;;;;;4999842;28;20896;-66
2023/09/27 14:20:57;;;;;;;2.13;1.70;;;25.30;99.90;;;;;;4991836;28;20514;-66
2023/09/27 14:23:23;;;;;;;2.40;1.80;;;25.50;99.90;;;;;;4990913;28;20463;-66
2023/09/27 14:25:50;;;;;;;1.70;1.60;;;25.70;99.90;;;;;;4991573;28;20462;-66
2023/09/27 14:28:17;;;;;;;1.90;1.70;;;25.80;99.90;;;;;;4991512;28;20466;-66
2023/09/27 14:30:44;;;;;;;2.00;1.90;;;26.00;99.90;;;;;;4991586;28;20501;-66
2023/09/27 14:33:13;;;;;;;2.37;1.50;;;26.00;99.90;;;;;;4991525;28;20490;-66
2023/09/27 14:35:40;;;;;;;2.07;1.87;;;26.10;99.90;;;;;;4991757;28;20973;-66
2023/09/27 14:38:07;;;;;;;1.97;1.83;;;26.10;99.90;;;;;;4983006;28;20470;-66
2023/09/27 14:40:34;;;;;;;1.93;1.80;;;26.10;99.90;;;;;;4972457;28;20517;-66
2023/09/27 14:43:01;;;;;;;2.00;1.80;;;26.20;99.90;;;;;;4972690;28;20508;-66
2023/09/27 14:45:29;;;;;;;1.80;1.70;;;26.30;99.90;;;;;;4971829;28;20471;-66
2023/09/27 14:47:56;;;;;;;1.50;1.40;;;26.20;99.90;;;;;;4977371;28;20477;-66
2023/09/27 14:50:24;;;;;;;2.40;1.90;;;26.30;99.90;;;;;;4972403;28;20467;-67
2023/09/27 14:52:51;;;;;;;1.97;1.77;;;26.20;99.90;;;;;;4972421;28;20474;-67
2023/09/27 14:55:17;;;;;;;2.30;2.10;;;26.20;99.90;;;;;;4976615;28;20474;-66
2023/09/27 14:57:44;;;;;;;1.77;1.63;;;26.20;99.90;;;;;;4987767;28;20527;-67
2023/09/27 15:00:12;;;;;;;2.50;1.90;;;26.10;99.90;;;;;;4984585;28;21025;-67
2023/09/27 15:02:39;;;;;;;2.90;1.70;;;26.10;99.90;;;;;;4988495;28;20560;-66
2023/09/27 15:05:07;;;;;;;2.57;2.37;;;26.10;99.90;;;;;;4985915;28;20856;-66
2023/09/27 15:07:36;;;;;;;3.00;2.00;;;26.10;99.90;;;;;;4980769;28;20490;-66
2023/09/27 15:10:03;;;;;;;1.83;1.70;;;26.00;99.90;;;;;;4977305;28;20517;-66
2023/09/27 15:12:30;;;;;;;2.63;2.03;;;26.00;99.90;;;;;;4990722;28;20481;-66
2023/09/27 15:14:56;;;;;;;1.73;1.63;;;26.00;99.90;;;;;;4987925;28;20610;-66
2023/09/27 15:17:24;;;;;;;1.80;1.70;;;25.90;99.90;;;;;;4988695;28;20458;-66
2023/09/27 15:19:51;;;;;;;1.60;1.50;;;25.80;99.90;;;;;;4991441;28;20466;-66
2023/09/27 15:22:18;;;;;;;1.70;1.60;;;25.80;99.90;;;;;;4991561;28;20540;-66
2023/09/27 15:24:46;;;;;;;2.70;1.63;;;25.70;99.90;;;;;;4990791;28;20458;-66
2023/09/27 15:27:13;;;;;;;1.60;1.50;;;25.60;99.90;;;;;;4992272;28;20467;-66
2023/09/27 15:29:40;;;;;;;1.97;1.77;;;25.40;99.90;;;;;;4991842;28;20485;-66
2023/09/27 15:32:07;;;;;;;1.97;1.80;;;25.40;99.90;;;;;;4992407;28;20547;-66
2023/09/27 15:34:35;;;;;;;2.20;2.00;;;25.30;99.90;;;;;;4998984;28;20521;-66
2023/09/27 15:37:02;;;;;;;1.97;1.77;;;25.30;99.90;;;;;;4991153;28;20894;-66
2023/09/27 15:39:28;;;;;;;1.63;1.53;;;25.20;99.90;;;;;;4992592;28;20974;-66
2023/09/27 15:41:56;;;;;;;2.73;2.07;;;25.20;99.90;;;;;;4992095;28;20482;-67
2023/09/27 15:44:23;;;;;;;1.90;1.80;;;25.10;99.90;;;;;;4991001;28;20473;-66
2023/09/27 15:46:51;;;;;;;3.40;2.07;;;24.90;99.90;;;;;;4991244;28;20462;-66
2023/09/27 15:49:18;;;;;;;3.03;1.87;;;24.80;99.90;;;;;;4981905;28;20525;-66
2023/09/27 15:51:44;;;;;;;1.87;1.77;;;24.70;99.90;;;;;;4991385;28;20848;-67
2023/09/27 15:54:11;;;;;;;2.93;1.80;;;24.70;99.90;;;;;;4992197;28;20490;-67
2023/09/27 15:56:38;;;;;;;2.20;2.00;;;24.50;99.90;;;;;;4991524;28;20488;-67
2023/09/27 15:59:08;;;;;;;2.17;2.00;;;24.40;99.90;;;;;;4992420;28;20466;-66
2023/09/27 16:01:35;;;;;;;1.80;1.70;;;24.40;99.90;;;;;;4992350;28;20923;-67
2023/09/27 16:04:01;;;;;;;3.57;1.90;;;24.20;99.90;;;;;;4991068;28;20458;-66
2023/09/27 16:06:29;;;;;;;1.80;1.70;;;24.10;99.90;;;;;;4993152;28;20819;-66
2023/09/27 16:08:56;;;;;;;2.30;2.10;;;23.90;99.90;;;;;;4992703;28;20565;-66
2023/09/27 16:11:27;;;;;;;1.60;1.50;;;23.80;99.90;;;;;;4994584;28;20478;-67
2023/09/27 16:13:54;;;;;;;2.47;1.90;;;23.60;99.90;;;;;;4995948;28;20872;-66
2023/09/27 16:16:22;;;;;;;2.27;2.03;;;23.40;99.90;;;;;;4997314;28;20481;-66
2023/09/27 16:18:49;;;;;;;2.97;2.40;;;23.20;99.90;;;;;;4996914;28;20470;-66
2023/09/27 16:21:18;;;;;;;1.90;1.70;;;23.10;99.90;;;;;;4996989;28;20850;-66
2023/09/27 16:23:45;;;;;;;2.70;2.43;;;22.90;99.90;;;;;;4989751;28;20549;-66